Portada
METAR-TAF:

METAR-TAF

Aeroports :

Changsha, Xina

latitud: 28-11N, longitud: 113-13E, altitud: 66 m

Observació

L'informe es va fer fa 41 minuts, a les 20:00 UTC
Vent 12 kt del Nord/Nord-Oest
Temperatura 22°C
Humitat 78%
Pressió 1017 hPa
Visibilitat: 8000 m
Cel ennuvolat a una alçada de 2500 ft
Cel ennuvolat a una alçada de 5000 ft

METAR: ZGHA 172000Z 34006MPS 8000 BKN025 BKN050 22/18 Q1017 NOSIG

Hora: 04:41 (20:41 UTC)

Pronòstic

L'informe es va fer fa 6 hores i 30 minuts, a les 14:11 UTC
Pronòstic vàlid del 17 a les 18 UTC al 18 a les 18 UTC
Vent 8 kt del Nord
Visibilitat: 6000 m
Núvols disperses a una alçada de 3000 ft

TAF: ZGHA 171411Z 1718/1818 35004MPS 6000 SCT030 TX30/1807Z TN23/1722Z

Observacions i pronòstics meteorològics de més de 4000 aeroports (METAR i TAF).

Les estacions disponibles són els punts grocs i vermells al mapa.

Posi el ratolí al punt desitjat per veure el nom de l'estació.

Feu clic per veure les observacions i els pronòstics meteorològics.

Per canviar el mapa: feu clic els botons verds amb una creu de color negre per apropar; al botó verd amb un guió per allunyar la imatge; o en les fletxes verdes per a mapes adjacents.


METAR-TAF: